createdAt,value
2019-05-26T00:00:36.637Z,16.98
2019-05-26T00:03:07.782Z,16.94
2019-05-26T00:05:38.734Z,16.88
2019-05-26T00:08:09.720Z,16.79
2019-05-26T00:10:41.368Z,16.73
2019-05-26T00:13:12.403Z,16.70
2019-05-26T00:15:43.522Z,16.66
2019-05-26T00:18:14.511Z,16.65
2019-05-26T00:20:45.648Z,16.64
2019-05-26T00:23:16.643Z,16.64
2019-05-26T00:25:47.708Z,16.64
2019-05-26T00:28:18.835Z,16.65
2019-05-26T00:30:49.805Z,16.63
2019-05-26T00:33:20.930Z,16.60
2019-05-26T00:35:52.224Z,16.58
2019-05-26T00:38:23.295Z,16.58
2019-05-26T00:40:54.393Z,16.61
2019-05-26T00:43:25.376Z,16.60
2019-05-26T00:45:56.928Z,16.64
2019-05-26T00:48:28.072Z,16.68
2019-05-26T00:50:59.152Z,16.64
2019-05-26T00:53:30.305Z,16.64
2019-05-26T00:56:01.440Z,16.63
2019-05-26T00:58:32.508Z,16.64
2019-05-26T01:01:07.102Z,16.64
2019-05-26T01:03:38.246Z,16.63
2019-05-26T01:06:09.429Z,16.61
2019-05-26T01:08:40.532Z,16.58
2019-05-26T01:11:11.953Z,16.55
2019-05-26T01:13:42.963Z,16.50
2019-05-26T01:16:14.036Z,16.45
2019-05-26T01:18:45.069Z,16.42
2019-05-26T01:21:16.155Z,16.39
2019-05-26T01:23:47.299Z,16.38
2019-05-26T01:26:18.453Z,16.35
2019-05-26T01:28:50.792Z,16.33
2019-05-26T01:31:22.002Z,16.30
2019-05-26T01:33:53.229Z,16.31
2019-05-26T01:36:24.372Z,16.31
2019-05-26T01:38:55.726Z,16.35
2019-05-26T01:41:26.830Z,16.38
2019-05-26T01:43:57.970Z,16.41
2019-05-26T01:46:29.058Z,16.42
2019-05-26T01:49:00.154Z,16.48
2019-05-26T01:51:31.202Z,16.53
2019-05-26T01:54:02.363Z,16.60
2019-05-26T01:56:33.421Z,16.65
2019-05-26T01:59:04.640Z,16.73
2019-05-26T02:01:35.842Z,16.78
2019-05-26T02:04:07.136Z,16.82
2019-05-26T02:06:38.381Z,16.84
2019-05-26T02:09:09.662Z,16.85
2019-05-26T02:11:40.690Z,16.93
2019-05-26T02:14:14.448Z,16.98
2019-05-26T02:16:44.871Z,17.02
2019-05-26T02:19:16.015Z,17.10
2019-05-26T02:21:47.125Z,17.33
2019-05-26T02:24:18.231Z,17.70
2019-05-26T02:26:49.350Z,18.05
2019-05-26T02:29:20.478Z,18.40
2019-05-26T02:31:51.538Z,18.58
2019-05-26T02:34:22.671Z,18.77
2019-05-26T02:36:54.932Z,19.05
2019-05-26T02:39:26.159Z,19.37
2019-05-26T02:41:57.231Z,19.86
2019-05-26T02:44:28.204Z,20.22
2019-05-26T02:46:59.216Z,20.25
2019-05-26T02:49:30.259Z,20.09
2019-05-26T02:52:01.487Z,19.88
2019-05-26T02:54:32.667Z,19.76
2019-05-26T02:57:03.817Z,19.73
2019-05-26T02:59:34.809Z,19.89
2019-05-26T03:02:06.258Z,20.49
2019-05-26T03:04:37.405Z,21.34
2019-05-26T03:07:09.101Z,22.47
2019-05-26T03:09:40.299Z,23.57
2019-05-26T03:12:11.927Z,24.79
2019-05-26T03:14:44.676Z,25.70
2019-05-26T03:17:19.342Z,25.64
2019-05-26T03:19:51.818Z,25.16
2019-05-26T03:22:23.917Z,24.43
2019-05-26T03:24:54.965Z,23.79
2019-05-26T03:27:26.094Z,23.11
2019-05-26T03:29:57.118Z,22.63
2019-05-26T03:32:28.208Z,22.31
2019-05-26T03:34:59.152Z,22.05
2019-05-26T03:37:30.566Z,21.82
2019-05-26T03:40:03.010Z,21.50
2019-05-26T03:42:34.083Z,21.33
2019-05-26T03:45:06.895Z,21.28
2019-05-26T03:47:37.974Z,21.25
2019-05-26T03:50:09.140Z,21.12
2019-05-26T03:52:40.150Z,21.03
2019-05-26T03:55:11.695Z,21.03
2019-05-26T03:57:42.721Z,20.99
2019-05-26T04:00:14.190Z,20.99
2019-05-26T04:02:46.743Z,20.97
2019-05-26T04:05:17.919Z,20.98
2019-05-26T04:07:49.058Z,21.00
2019-05-26T04:10:21.849Z,21.02
2019-05-26T04:12:53.029Z,20.94
2019-05-26T04:15:24.261Z,20.82
2019-05-26T04:17:55.290Z,20.83
2019-05-26T04:20:26.722Z,20.81
2019-05-26T04:22:57.967Z,20.77
2019-05-26T04:25:28.988Z,20.77
2019-05-26T04:28:01.505Z,20.88
2019-05-26T04:30:32.482Z,20.84
2019-05-26T04:33:03.571Z,20.97
2019-05-26T04:35:34.626Z,21.00
2019-05-26T04:38:05.744Z,21.04
2019-05-26T04:40:38.920Z,21.16
2019-05-26T04:43:14.498Z,21.25
2019-05-26T04:45:42.696Z,21.34
2019-05-26T04:48:14.047Z,21.51
2019-05-26T04:50:45.201Z,21.71
2019-05-26T04:53:16.234Z,21.98
2019-05-26T04:55:47.242Z,22.32
2019-05-26T04:58:18.350Z,22.74
2019-05-26T05:00:49.456Z,23.11
2019-05-26T05:03:20.607Z,23.39
2019-05-26T05:05:51.771Z,23.47
2019-05-26T05:08:22.871Z,23.57
2019-05-26T05:10:54.118Z,23.77
2019-05-26T05:13:25.326Z,23.84
2019-05-26T05:15:56.363Z,23.97
2019-05-26T05:18:27.403Z,24.37
2019-05-26T05:20:58.407Z,25.68
2019-05-26T05:23:29.541Z,26.58
2019-05-26T05:26:00.657Z,27.16
2019-05-26T05:28:31.717Z,27.80
2019-05-26T05:31:02.749Z,28.51
2019-05-26T05:33:33.747Z,29.26
2019-05-26T05:36:04.736Z,29.50
2019-05-26T05:38:35.756Z,29.63
2019-05-26T05:41:06.796Z,29.65
2019-05-26T05:43:37.854Z,29.81
2019-05-26T05:46:08.945Z,29.78
2019-05-26T05:48:39.960Z,29.60
2019-05-26T05:51:11.055Z,29.94
2019-05-26T05:53:42.176Z,31.26
2019-05-26T05:56:13.272Z,32.89
2019-05-26T05:58:44.354Z,32.88
2019-05-26T06:01:15.470Z,32.08
2019-05-26T06:03:46.564Z,31.40
2019-05-26T06:06:17.792Z,30.90
2019-05-26T06:08:51.400Z,30.30
2019-05-26T06:11:24.445Z,29.91
2019-05-26T06:13:56.726Z,29.42
2019-05-26T06:16:29.637Z,28.77
2019-05-26T06:19:00.990Z,28.35
2019-05-26T06:21:32.250Z,28.17
2019-05-26T06:24:04.900Z,28.06
2019-05-26T06:26:36.304Z,27.93
2019-05-26T06:29:13.980Z,27.97
2019-05-26T06:31:45.542Z,28.14
2019-05-26T06:34:26.653Z,28.27
2019-05-26T06:36:56.158Z,28.76
2019-05-26T06:39:27.806Z,28.82
2019-05-26T06:41:59.798Z,28.32
2019-05-26T06:44:30.837Z,27.89
2019-05-26T06:47:01.924Z,27.30
2019-05-26T06:49:33.035Z,27.01
2019-05-26T06:52:04.253Z,27.17
2019-05-26T06:54:35.318Z,28.20
2019-05-26T06:57:06.422Z,29.39
2019-05-26T06:59:37.499Z,30.80
2019-05-26T07:02:08.464Z,31.98
2019-05-26T07:04:39.520Z,32.91
2019-05-26T07:07:10.616Z,33.97
2019-05-26T07:09:41.627Z,34.12
2019-05-26T07:12:12.598Z,33.82
2019-05-26T07:14:43.810Z,32.82
2019-05-26T07:17:14.812Z,32.18
2019-05-26T07:19:45.917Z,31.75
2019-05-26T07:22:17.228Z,31.38
2019-05-26T07:24:48.367Z,30.73
2019-05-26T07:27:19.572Z,29.75
2019-05-26T07:29:54.431Z,28.99
2019-05-26T07:32:31.040Z,28.70
2019-05-26T07:35:02.073Z,28.35
2019-05-26T07:37:33.208Z,27.97
2019-05-26T07:40:04.967Z,27.69
2019-05-26T07:42:36.203Z,27.63
2019-05-26T07:45:08.141Z,27.48
2019-05-26T07:47:39.484Z,27.49
2019-05-26T07:50:13.214Z,27.30
2019-05-26T07:52:46.900Z,27.18
2019-05-26T07:55:18.762Z,27.11
2019-05-26T07:57:50.090Z,27.12
2019-05-26T08:00:28.036Z,26.88
2019-05-26T08:02:59.100Z,26.48
2019-05-26T08:05:30.186Z,26.48
2019-05-26T08:08:12.233Z,26.51
2019-05-26T08:10:34.864Z,26.50
2019-05-26T08:13:07.924Z,26.44
2019-05-26T08:15:39.993Z,26.25
2019-05-26T08:18:12.261Z,26.29
2019-05-26T08:20:43.694Z,26.53
2019-05-26T08:23:15.050Z,26.71
2019-05-26T08:25:46.108Z,26.96
2019-05-26T08:28:17.249Z,27.12
2019-05-26T08:30:48.260Z,27.14
2019-05-26T08:33:19.249Z,27.19
2019-05-26T08:35:50.259Z,27.23
2019-05-26T08:38:21.301Z,27.28
2019-05-26T08:40:52.254Z,27.22
2019-05-26T08:43:23.274Z,27.27
2019-05-26T08:45:54.277Z,27.26
2019-05-26T08:48:25.322Z,27.18
2019-05-26T08:50:56.544Z,27.30
2019-05-26T08:53:27.521Z,27.37
2019-05-26T08:55:58.505Z,27.07
2019-05-26T08:58:29.684Z,26.71
2019-05-26T09:01:00.809Z,26.50
2019-05-26T09:03:31.870Z,26.49
2019-05-26T09:06:02.888Z,26.60
2019-05-26T09:08:34.006Z,26.84
2019-05-26T09:11:05.117Z,26.69
2019-05-26T09:13:36.100Z,26.11
2019-05-26T09:16:07.333Z,25.98
2019-05-26T09:18:38.304Z,25.93
2019-05-26T09:21:09.213Z,26.11
2019-05-26T09:23:40.543Z,26.27
2019-05-26T09:26:11.531Z,26.43
2019-05-26T09:28:43.428Z,26.69
2019-05-26T09:31:14.434Z,26.92
2019-05-26T09:33:45.695Z,27.27
2019-05-26T09:36:17.999Z,27.46
2019-05-26T09:38:50.543Z,27.32
2019-05-26T09:41:21.443Z,26.98
2019-05-26T09:43:52.364Z,26.62
2019-05-26T09:46:23.417Z,26.13
2019-05-26T09:48:54.488Z,25.69
2019-05-26T09:51:25.794Z,25.49
2019-05-26T09:54:01.837Z,25.41
2019-05-26T09:56:40.152Z,25.42
2019-05-26T09:59:12.891Z,25.48
2019-05-26T10:01:43.927Z,25.55
2019-05-26T10:04:15.626Z,25.50
2019-05-26T10:06:46.620Z,25.47
2019-05-26T10:09:17.614Z,25.60
2019-05-26T10:11:48.668Z,25.88
2019-05-26T10:14:19.833Z,26.35
2019-05-26T10:16:51.015Z,26.72
2019-05-26T10:19:22.137Z,27.12
2019-05-26T10:21:59.904Z,27.41
2019-05-26T10:24:38.521Z,27.28
2019-05-26T10:27:09.610Z,26.95
2019-05-26T10:29:42.389Z,26.68
2019-05-26T10:32:16.260Z,26.38
2019-05-26T10:34:48.193Z,26.54
2019-05-26T10:37:20.870Z,26.67
2019-05-26T10:39:55.010Z,26.78
2019-05-26T10:42:26.029Z,26.81
2019-05-26T10:44:56.988Z,26.65
2019-05-26T10:47:27.960Z,26.19
2019-05-26T10:49:58.952Z,25.40
2019-05-26T10:52:29.885Z,24.74
2019-05-26T10:55:00.963Z,24.59
2019-05-26T10:57:32.021Z,24.69
2019-05-26T11:00:03.116Z,24.84
2019-05-26T11:02:34.133Z,24.97
2019-05-26T11:05:06.599Z,25.04
2019-05-26T11:07:37.646Z,25.17
2019-05-26T11:10:08.898Z,25.41
2019-05-26T11:12:39.952Z,25.43
2019-05-26T11:15:11.426Z,25.58
2019-05-26T11:17:42.663Z,25.73
2019-05-26T11:20:14.637Z,25.80
2019-05-26T11:22:45.761Z,25.77
2019-05-26T11:25:17.519Z,25.75
2019-05-26T11:27:48.523Z,25.78
2019-05-26T11:30:19.614Z,25.66
2019-05-26T11:32:50.654Z,25.78
2019-05-26T11:35:21.771Z,25.93
2019-05-26T11:37:52.734Z,26.22
2019-05-26T11:40:23.830Z,26.31
2019-05-26T11:42:54.733Z,26.26
2019-05-26T11:45:25.781Z,26.20
2019-05-26T11:47:56.773Z,26.17
2019-05-26T11:50:27.817Z,26.05
2019-05-26T11:52:58.770Z,25.97
2019-05-26T11:55:29.816Z,25.90
2019-05-26T11:58:00.754Z,25.99
2019-05-26T12:00:31.852Z,26.15
2019-05-26T12:03:02.912Z,26.32
2019-05-26T12:05:33.979Z,26.39
2019-05-26T12:08:04.950Z,26.28
2019-05-26T12:10:36.066Z,26.03
2019-05-26T12:13:07.127Z,25.83
2019-05-26T12:15:38.310Z,25.73
2019-05-26T12:18:09.360Z,25.59
2019-05-26T12:20:40.351Z,25.53
2019-05-26T12:23:11.360Z,25.62
2019-05-26T12:25:43.008Z,25.71
2019-05-26T12:28:14.089Z,25.84
2019-05-26T12:30:45.054Z,25.86
2019-05-26T12:33:16.247Z,25.84
2019-05-26T12:35:47.296Z,25.86
2019-05-26T12:38:18.277Z,26.00
2019-05-26T12:40:49.309Z,26.07
2019-05-26T12:43:21.217Z,26.09
2019-05-26T12:45:53.807Z,26.04
2019-05-26T12:48:24.718Z,25.83
2019-05-26T12:50:55.717Z,25.70
2019-05-26T12:53:26.722Z,25.67
2019-05-26T12:55:57.829Z,25.58
2019-05-26T12:58:28.829Z,25.46
2019-05-26T13:00:59.908Z,25.44
2019-05-26T13:03:31.038Z,25.34
2019-05-26T13:06:02.167Z,25.20
2019-05-26T13:08:33.224Z,25.06
2019-05-26T13:11:04.316Z,24.86
2019-05-26T13:13:35.319Z,24.51
2019-05-26T13:16:06.264Z,24.27
2019-05-26T13:18:37.314Z,24.21
2019-05-26T13:21:08.308Z,24.22
2019-05-26T13:23:39.372Z,24.30
2019-05-26T13:26:10.368Z,24.42
2019-05-26T13:28:41.776Z,24.72
2019-05-26T13:31:15.820Z,24.99
2019-05-26T13:33:47.006Z,25.22
2019-05-26T13:36:18.031Z,25.47
2019-05-26T13:38:48.977Z,25.82
2019-05-26T13:41:20.004Z,26.11
2019-05-26T13:43:50.997Z,26.31
2019-05-26T13:46:21.945Z,26.33
2019-05-26T13:48:58.002Z,26.22
2019-05-26T13:51:29.126Z,26.08
2019-05-26T13:54:00.301Z,25.98
2019-05-26T13:56:31.520Z,25.99
2019-05-26T13:59:04.703Z,26.04
2019-05-26T14:01:35.808Z,26.04
2019-05-26T14:04:07.092Z,25.97
2019-05-26T14:06:38.136Z,25.75
2019-05-26T14:09:10.173Z,25.47
2019-05-26T14:11:41.149Z,24.91
2019-05-26T14:14:12.130Z,24.38
2019-05-26T14:16:44.662Z,23.81
2019-05-26T14:19:16.697Z,23.29
2019-05-26T14:21:47.929Z,22.94
2019-05-26T14:24:19.218Z,22.85
2019-05-26T14:26:50.245Z,22.83
2019-05-26T14:29:21.515Z,22.77
2019-05-26T14:31:52.938Z,22.70
2019-05-26T14:34:24.526Z,22.61
2019-05-26T14:36:55.744Z,22.54
2019-05-26T14:39:27.022Z,22.54
2019-05-26T14:41:58.026Z,22.47
2019-05-26T14:44:29.185Z,22.45
2019-05-26T14:47:00.214Z,22.46
2019-05-26T14:49:31.423Z,22.47
2019-05-26T14:52:02.620Z,22.48
2019-05-26T14:54:33.720Z,22.53
2019-05-26T14:57:04.989Z,22.58
2019-05-26T14:59:36.109Z,22.75
2019-05-26T15:02:07.318Z,23.06
2019-05-26T15:04:38.624Z,23.29
2019-05-26T15:07:15.514Z,23.47
2019-05-26T15:09:50.088Z,23.57
2019-05-26T15:12:24.032Z,23.67
2019-05-26T15:14:55.392Z,23.74
2019-05-26T15:17:26.625Z,23.78
2019-05-26T15:19:57.839Z,23.80
2019-05-26T15:22:28.992Z,23.84
2019-05-26T15:25:00.077Z,23.86
2019-05-26T15:27:31.681Z,23.77
2019-05-26T15:30:02.978Z,23.61
2019-05-26T15:32:34.077Z,23.44
2019-05-26T15:35:08.858Z,23.30
2019-05-26T15:37:40.041Z,23.24
2019-05-26T15:40:11.198Z,23.26
2019-05-26T15:42:42.337Z,23.30
2019-05-26T15:45:13.806Z,23.42
2019-05-26T15:47:45.001Z,23.56
2019-05-26T15:50:16.319Z,23.63
2019-05-26T15:52:47.485Z,23.64
2019-05-26T15:55:18.634Z,23.67
2019-05-26T15:57:49.925Z,23.69
2019-05-26T16:00:21.165Z,23.64
2019-05-26T16:02:52.399Z,23.59
2019-05-26T16:05:23.587Z,23.57
2019-05-26T16:07:54.559Z,23.50
2019-05-26T16:10:25.669Z,23.46
2019-05-26T16:12:56.722Z,23.34
2019-05-26T16:15:30.577Z,23.26
2019-05-26T16:18:01.903Z,23.22
2019-05-26T16:20:33.135Z,23.16
2019-05-26T16:23:04.425Z,23.12
2019-05-26T16:25:35.775Z,23.04
2019-05-26T16:28:06.789Z,22.97
2019-05-26T16:30:38.076Z,22.84
2019-05-26T16:33:09.299Z,22.74
2019-05-26T16:35:40.590Z,22.63
2019-05-26T16:38:11.644Z,22.55
2019-05-26T16:40:42.670Z,22.44
2019-05-26T16:43:13.702Z,22.34
2019-05-26T16:45:55.717Z,22.25
2019-05-26T16:48:17.592Z,22.17
2019-05-26T16:50:48.851Z,22.08
2019-05-26T16:53:23.071Z,22.00
2019-05-26T16:55:54.421Z,21.92
2019-05-26T16:58:25.640Z,21.85
2019-05-26T17:00:56.956Z,21.78
2019-05-26T17:03:28.543Z,21.73
2019-05-26T17:06:08.061Z,21.67
2019-05-26T17:08:32.720Z,21.58
2019-05-26T17:11:03.996Z,21.53
2019-05-26T17:13:37.689Z,21.47
2019-05-26T17:16:08.933Z,21.40
2019-05-26T17:18:39.977Z,21.35
2019-05-26T17:21:11.135Z,21.35
2019-05-26T17:23:42.336Z,21.33
2019-05-26T17:26:13.723Z,21.31
2019-05-26T17:28:45.026Z,21.31
2019-05-26T17:31:16.271Z,21.28
2019-05-26T17:33:47.362Z,21.24
2019-05-26T17:36:18.431Z,21.27
2019-05-26T17:38:49.877Z,21.27
2019-05-26T17:41:21.151Z,21.20
2019-05-26T17:43:52.435Z,21.15
2019-05-26T17:46:36.276Z,20.98
2019-05-26T17:49:09.671Z,20.99
2019-05-26T17:51:40.936Z,20.97
2019-05-26T17:54:13.236Z,20.95
2019-05-26T17:56:44.470Z,20.92
2019-05-26T17:59:15.683Z,20.91
2019-05-26T18:01:47.241Z,20.89
2019-05-26T18:04:18.475Z,20.87
2019-05-26T18:06:50.037Z,20.75
2019-05-26T18:09:20.994Z,20.71
2019-05-26T18:11:52.374Z,20.66
2019-05-26T18:14:23.450Z,20.59
2019-05-26T18:16:54.718Z,20.54
2019-05-26T18:19:29.469Z,20.50
2019-05-26T18:21:58.522Z,20.48
2019-05-26T18:24:29.743Z,20.45
2019-05-26T18:27:01.003Z,20.42
2019-05-26T18:29:32.359Z,20.38
2019-05-26T18:32:19.177Z,20.33
2019-05-26T18:34:50.540Z,20.31
2019-05-26T18:37:22.451Z,20.29
2019-05-26T18:39:53.803Z,20.27
2019-05-26T18:42:28.135Z,20.26
2019-05-26T18:44:59.446Z,20.27
2019-05-26T18:47:32.509Z,20.29
2019-05-26T18:50:07.263Z,20.28
2019-05-26T18:52:38.973Z,20.28
2019-05-26T18:55:10.315Z,20.28
2019-05-26T18:57:45.787Z,20.24
2019-05-26T19:00:17.199Z,20.21
2019-05-26T19:02:52.452Z,20.12
2019-05-26T19:05:33.761Z,20.08
2019-05-26T19:08:04.333Z,20.03
2019-05-26T19:10:38.489Z,19.93
2019-05-26T19:13:10.721Z,19.89
2019-05-26T19:15:43.883Z,19.79
2019-05-26T19:18:20.034Z,19.74
2019-05-26T19:20:48.487Z,19.67
2019-05-26T19:23:20.268Z,19.62
2019-05-26T19:25:51.941Z,19.60
2019-05-26T19:28:23.488Z,19.64
2019-05-26T19:30:56.438Z,19.61
2019-05-26T19:33:27.735Z,19.62
2019-05-26T19:36:00.642Z,19.64
2019-05-26T19:38:31.944Z,19.67
2019-05-26T19:41:03.224Z,19.65
2019-05-26T19:43:34.616Z,19.63
2019-05-26T19:46:10.497Z,19.60
2019-05-26T19:48:44.587Z,19.59
2019-05-26T19:51:16.187Z,19.44
2019-05-26T19:53:47.691Z,19.50
2019-05-26T19:56:19.018Z,19.45
2019-05-26T19:58:50.304Z,19.47
2019-05-26T20:01:21.657Z,19.51
2019-05-26T20:03:52.960Z,19.44
2019-05-26T20:06:24.315Z,19.54
2019-05-26T20:08:55.741Z,19.55
2019-05-26T20:11:26.981Z,19.51
2019-05-26T20:13:59.157Z,19.45
2019-05-26T20:16:30.996Z,19.37
2019-05-26T20:19:02.606Z,19.30
2019-05-26T20:21:33.954Z,19.28
2019-05-26T20:24:06.541Z,19.27
2019-05-26T20:26:38.783Z,19.24
2019-05-26T20:29:10.074Z,19.25
2019-05-26T20:31:41.453Z,19.26
2019-05-26T20:34:12.825Z,19.28
2019-05-26T20:36:44.141Z,19.31
2019-05-26T20:39:15.533Z,19.36
2019-05-26T20:41:46.985Z,19.41
2019-05-26T20:44:18.388Z,19.45
2019-05-26T20:46:52.847Z,19.48
2019-05-26T20:49:44.855Z,19.49
2019-05-26T20:52:07.316Z,19.49
2019-05-26T20:54:38.882Z,19.49
2019-05-26T20:57:10.369Z,19.50
2019-05-26T20:59:42.836Z,19.48
2019-05-26T21:02:15.458Z,19.48
2019-05-26T21:04:46.815Z,19.47
2019-05-26T21:07:18.138Z,19.46
2019-05-26T21:09:49.438Z,19.46
2019-05-26T21:12:20.793Z,19.41
2019-05-26T21:14:52.128Z,19.40
2019-05-26T21:17:23.478Z,19.35
2019-05-26T21:19:54.963Z,19.32
2019-05-26T21:22:26.344Z,19.30
2019-05-26T21:24:57.594Z,19.26
2019-05-26T21:27:29.247Z,19.23
2019-05-26T21:30:00.733Z,19.21
2019-05-26T21:32:32.035Z,19.18
2019-05-26T21:35:04.297Z,19.13
2019-05-26T21:37:35.601Z,19.12
2019-05-26T21:40:08.493Z,19.09
2019-05-26T21:42:39.826Z,19.04
2019-05-26T21:45:11.223Z,19.03
2019-05-26T21:47:42.760Z,19.02
2019-05-26T21:50:14.349Z,18.99
2019-05-26T21:52:45.671Z,18.95
2019-05-26T21:55:17.094Z,18.93
2019-05-26T21:57:48.423Z,18.93
2019-05-26T22:00:22.093Z,18.90
2019-05-26T22:02:56.246Z,18.87
2019-05-26T22:05:29.749Z,18.88
2019-05-26T22:08:01.128Z,18.88
2019-05-26T22:10:32.440Z,18.86
2019-05-26T22:13:03.736Z,18.84
2019-05-26T22:18:45.473Z,18.94
2019-05-26T22:21:26.631Z,19.03
2019-05-26T22:23:57.866Z,19.02
2019-05-26T22:26:29.239Z,19.03
2019-05-26T22:29:00.474Z,19.05
2019-05-26T22:31:31.810Z,19.06
2019-05-26T22:34:03.169Z,19.02
2019-05-26T22:36:34.502Z,19.04
2019-05-26T22:39:06.933Z,19.04
2019-05-26T22:41:38.262Z,19.04
2019-05-26T22:44:09.518Z,19.04
2019-05-26T22:46:41.222Z,18.99
2019-05-26T22:49:12.444Z,19.01
2019-05-26T22:51:43.698Z,19.00
2019-05-26T22:54:14.915Z,19.01
2019-05-26T22:56:46.199Z,19.04
2019-05-26T22:59:17.431Z,19.07
2019-05-26T23:01:48.693Z,19.08
2019-05-26T23:04:20.018Z,19.01
2019-05-26T23:06:51.283Z,19.11
2019-05-26T23:09:22.525Z,19.20
2019-05-26T23:11:53.765Z,19.20
2019-05-26T23:14:25.023Z,19.19
2019-05-26T23:16:56.313Z,19.23
2019-05-26T23:19:27.565Z,19.22
2019-05-26T23:21:58.888Z,19.18
2019-05-26T23:24:30.199Z,19.18
2019-05-26T23:27:01.478Z,19.17
2019-05-26T23:29:32.699Z,19.17
2019-05-26T23:32:04.054Z,19.16
2019-05-26T23:34:35.204Z,19.16
2019-05-26T23:37:06.962Z,19.14
2019-05-26T23:39:38.487Z,19.13
2019-05-26T23:42:09.656Z,19.10
2019-05-26T23:44:40.714Z,19.09
2019-05-26T23:47:11.883Z,19.05
2019-05-26T23:49:44.178Z,19.01
2019-05-26T23:52:19.183Z,18.97
2019-05-26T23:54:48.626Z,18.98
2019-05-26T23:57:19.737Z,18.93
2019-05-26T23:59:50.855Z,18.91
